createdAt,value
2022-11-25T00:00:44.593Z,29.30
2022-11-25T00:03:15.396Z,31.25
2022-11-25T00:05:44.631Z,24.77
2022-11-25T00:08:13.900Z,25.63
2022-11-25T00:10:44.112Z,24.58
2022-11-25T00:13:15.597Z,31.25
2022-11-25T00:15:44.763Z,24.67
2022-11-25T00:18:14.994Z,33.15
2022-11-25T00:20:47.251Z,26.85
2022-11-25T00:23:18.125Z,27.95
2022-11-25T00:25:47.092Z,23.88
2022-11-25T00:28:15.969Z,25.92
2022-11-25T00:30:45.184Z,29.55
2022-11-25T00:33:16.021Z,32.15
2022-11-25T00:35:46.228Z,25.40
2022-11-25T00:38:18.824Z,34.80
2022-11-25T00:41:08.481Z,27.80
2022-11-25T00:43:56.864Z,26.63
2022-11-25T00:46:27.552Z,40.25
2022-11-25T00:48:59.995Z,32.05
2022-11-25T00:51:30.466Z,40.33
2022-11-25T00:54:03.689Z,29.55
2022-11-25T00:56:33.991Z,38.35
2022-11-25T00:59:03.260Z,32.35
2022-11-25T01:01:32.698Z,35.03
2022-11-25T01:04:03.370Z,22.98
2022-11-25T01:06:32.429Z,33.35
2022-11-25T01:09:01.492Z,28.52
2022-11-25T01:11:32.246Z,30.27
2022-11-25T01:14:02.571Z,29.48
2022-11-25T01:16:33.962Z,37.95
2022-11-25T01:19:05.026Z,25.65
2022-11-25T01:21:38.184Z,28.50
2022-11-25T01:24:08.998Z,30.00
2022-11-25T01:26:39.282Z,30.98
2022-11-25T01:29:14.964Z,32.70
2022-11-25T01:31:50.150Z,26.45
2022-11-25T01:34:22.798Z,25.25
2022-11-25T01:36:52.687Z,35.75
2022-11-25T01:39:30.422Z,28.30
2022-11-25T01:42:01.329Z,32.15
2022-11-25T01:44:31.848Z,32.03
2022-11-25T01:47:14.114Z,32.28
2022-11-25T01:49:50.536Z,30.75
2022-11-25T01:52:26.642Z,31.17
2022-11-25T01:55:11.829Z,36.60
2022-11-25T01:57:47.065Z,27.08
2022-11-25T02:00:17.381Z,25.38
2022-11-25T02:02:47.767Z,28.17
2022-11-25T02:05:22.366Z,27.20
2022-11-25T02:07:54.727Z,32.13
2022-11-25T02:10:34.231Z,30.08
2022-11-25T02:13:04.672Z,22.88
2022-11-25T02:15:36.521Z,29.38
2022-11-25T02:18:06.794Z,32.35
2022-11-25T02:20:36.896Z,25.95
2022-11-25T02:23:16.608Z,24.45
2022-11-25T02:25:49.395Z,33.92
2022-11-25T02:28:23.631Z,28.17
2022-11-25T02:30:53.454Z,31.23
2022-11-25T02:33:25.168Z,30.60
2022-11-25T02:35:58.703Z,22.10
2022-11-25T02:38:39.094Z,24.98
2022-11-25T02:41:17.772Z,29.00
2022-11-25T02:43:49.737Z,23.25
2022-11-25T02:46:23.028Z,32.80
2022-11-25T02:49:10.849Z,24.23
2022-11-25T02:51:45.463Z,28.45
2022-11-25T02:54:16.540Z,31.65
2022-11-25T02:56:47.265Z,31.92
2022-11-25T02:59:16.287Z,30.08
2022-11-25T03:01:44.695Z,34.42
2022-11-25T03:04:13.899Z,24.25
2022-11-25T03:06:44.314Z,27.27
2022-11-25T03:09:13.429Z,33.35
2022-11-25T03:11:59.935Z,21.48
2022-11-25T03:14:30.167Z,43.10
2022-11-25T03:16:58.820Z,36.22
2022-11-25T03:19:28.227Z,43.65
2022-11-25T03:21:57.113Z,31.55
2022-11-25T03:24:26.328Z,31.65
2022-11-25T03:26:56.524Z,39.38
2022-11-25T03:29:26.103Z,23.50
2022-11-25T03:31:56.310Z,33.97
2022-11-25T03:34:25.787Z,25.85
2022-11-25T03:36:54.584Z,32.45
2022-11-25T03:39:24.263Z,35.22
2022-11-25T03:41:57.757Z,31.27
2022-11-25T03:44:26.924Z,34.67
2022-11-25T03:46:58.242Z,30.50
2022-11-25T03:49:28.634Z,38.75
2022-11-25T03:51:57.733Z,37.83
2022-11-25T03:54:27.452Z,28.58
2022-11-25T03:56:56.686Z,27.75
2022-11-25T03:59:25.923Z,30.50
2022-11-25T04:01:57.863Z,36.55
2022-11-25T04:04:27.903Z,38.58
2022-11-25T04:06:57.498Z,37.92
2022-11-25T04:09:27.204Z,34.83
2022-11-25T04:12:13.473Z,33.58
2022-11-25T04:14:42.712Z,35.55
2022-11-25T04:17:13.812Z,37.22
2022-11-25T04:19:42.692Z,40.65
2022-11-25T04:22:12.450Z,26.30
2022-11-25T04:24:42.181Z,31.35
2022-11-25T04:27:11.362Z,25.55
2022-11-25T04:29:40.496Z,30.45
2022-11-25T04:32:11.091Z,28.13
2022-11-25T04:34:41.779Z,23.25
2022-11-25T04:37:11.130Z,29.30
2022-11-25T04:39:42.799Z,29.13
2022-11-25T04:42:29.305Z,31.10
2022-11-25T04:45:21.370Z,23.90
2022-11-25T04:47:48.533Z,29.15
2022-11-25T04:50:22.325Z,23.08
2022-11-25T04:52:52.405Z,26.95
2022-11-25T04:55:21.409Z,25.73
2022-11-25T04:57:53.079Z,22.02
2022-11-25T05:00:21.853Z,17.90
2022-11-25T05:02:51.496Z,22.25
2022-11-25T05:05:22.349Z,25.98
2022-11-25T05:07:52.622Z,16.88
2022-11-25T05:10:24.744Z,18.92
2022-11-25T05:12:53.519Z,21.63
2022-11-25T05:15:24.572Z,19.95
2022-11-25T05:17:54.833Z,16.33
2022-11-25T05:20:25.103Z,19.25
2022-11-25T05:22:54.068Z,14.90
2022-11-25T05:25:25.545Z,17.83
2022-11-25T05:27:54.774Z,15.25
2022-11-25T05:30:23.801Z,22.52
2022-11-25T05:32:52.843Z,17.48
2022-11-25T05:35:24.954Z,17.75
2022-11-25T05:37:55.341Z,17.23
2022-11-25T05:40:24.122Z,20.08
2022-11-25T05:42:56.034Z,13.68
2022-11-25T05:45:25.110Z,11.07
2022-11-25T05:47:56.725Z,15.40
2022-11-25T05:50:29.007Z,20.13
2022-11-25T05:52:59.037Z,11.30
2022-11-25T05:55:27.720Z,16.38
2022-11-25T05:57:56.478Z,19.38
2022-11-25T06:00:26.940Z,18.80
2022-11-25T06:02:57.427Z,23.10
2022-11-25T06:05:27.760Z,17.27
2022-11-25T06:08:01.971Z,21.67
2022-11-25T06:10:34.251Z,17.60
2022-11-25T06:13:04.053Z,14.65
2022-11-25T06:15:34.873Z,14.50
2022-11-25T06:18:05.120Z,15.45
2022-11-25T06:20:37.678Z,13.90
2022-11-25T06:23:09.030Z,16.83
2022-11-25T06:25:38.760Z,19.88
2022-11-25T06:28:13.290Z,21.73
2022-11-25T06:30:42.466Z,18.45
2022-11-25T06:33:12.680Z,19.33
2022-11-25T06:35:44.573Z,16.58
2022-11-25T06:38:14.254Z,16.33
2022-11-25T06:40:43.182Z,24.02
2022-11-25T06:43:15.746Z,15.77
2022-11-25T06:45:45.262Z,17.70
2022-11-25T06:48:17.082Z,23.85
2022-11-25T06:50:57.492Z,28.08
2022-11-25T06:53:29.743Z,21.55
2022-11-25T06:56:09.256Z,20.98
2022-11-25T06:58:41.045Z,20.83
2022-11-25T07:01:20.550Z,24.60
2022-11-25T07:03:53.231Z,19.25
2022-11-25T07:06:25.005Z,21.27
2022-11-25T07:09:31.380Z,20.48
2022-11-25T07:12:01.469Z,24.48
2022-11-25T07:14:34.946Z,19.70
2022-11-25T07:17:11.768Z,25.05
2022-11-25T07:19:43.002Z,25.58
2022-11-25T07:22:14.216Z,27.73
2022-11-25T07:24:43.125Z,32.83
2022-11-25T07:27:14.535Z,23.98
2022-11-25T07:29:58.283Z,21.92
2022-11-25T07:32:36.389Z,22.45
2022-11-25T07:35:07.335Z,28.95
2022-11-25T07:37:39.333Z,27.55
2022-11-25T07:40:11.995Z,26.83
2022-11-25T07:42:42.915Z,26.10
2022-11-25T07:45:12.246Z,20.50
2022-11-25T07:47:41.272Z,27.48
2022-11-25T07:50:11.193Z,22.33
2022-11-25T07:52:42.264Z,23.73
2022-11-25T07:55:11.659Z,25.27
2022-11-25T07:57:42.309Z,28.75
2022-11-25T08:00:15.220Z,32.17
2022-11-25T08:02:46.682Z,27.95
2022-11-25T08:05:17.842Z,23.30
2022-11-25T08:07:49.110Z,27.52
2022-11-25T08:10:18.957Z,23.40
2022-11-25T08:12:47.421Z,26.67
2022-11-25T08:15:16.855Z,22.48
2022-11-25T08:17:46.561Z,19.33
2022-11-25T08:20:20.224Z,26.67
2022-11-25T08:22:50.962Z,23.20
2022-11-25T08:25:22.425Z,28.00
2022-11-25T08:27:51.466Z,19.10
2022-11-25T08:30:26.122Z,20.05
2022-11-25T08:32:55.240Z,15.05
2022-11-25T08:35:24.777Z,18.67
2022-11-25T08:37:54.909Z,18.85
2022-11-25T08:40:23.866Z,17.42
2022-11-25T08:42:53.949Z,16.50
2022-11-25T08:45:22.792Z,19.33
2022-11-25T08:47:51.731Z,17.20
2022-11-25T08:50:23.755Z,25.65
2022-11-25T08:52:54.644Z,14.35
2022-11-25T08:55:26.515Z,18.95
2022-11-25T08:57:56.151Z,11.77
2022-11-25T09:00:25.014Z,18.35
2022-11-25T09:02:54.038Z,17.67
2022-11-25T09:05:24.536Z,13.20
2022-11-25T09:07:56.418Z,14.18
2022-11-25T09:10:25.247Z,10.05
2022-11-25T09:12:54.829Z,12.05
2022-11-25T09:15:24.276Z,15.70
2022-11-25T09:18:04.243Z,13.35
2022-11-25T09:20:36.006Z,13.80
2022-11-25T09:23:07.673Z,22.38
2022-11-25T09:25:38.043Z,12.63
2022-11-25T09:28:09.536Z,12.05
2022-11-25T09:30:39.624Z,8.73
2022-11-25T09:33:10.374Z,11.88
2022-11-25T09:35:39.144Z,11.73
2022-11-25T09:38:11.215Z,10.00
2022-11-25T09:40:53.321Z,12.10
2022-11-25T09:43:59.615Z,13.65
2022-11-25T09:46:55.333Z,13.43
2022-11-25T09:49:46.183Z,16.45
2022-11-25T09:52:25.768Z,15.25
2022-11-25T09:55:06.928Z,15.02
2022-11-25T09:57:59.594Z,13.38
2022-11-25T10:00:44.571Z,18.35
2022-11-25T10:03:25.370Z,16.55
2022-11-25T10:06:04.166Z,12.05
2022-11-25T10:08:39.680Z,11.30
2022-11-25T10:11:26.885Z,14.82
2022-11-25T10:14:02.387Z,23.33
2022-11-25T10:16:37.687Z,18.35
2022-11-25T10:19:22.627Z,13.40
2022-11-25T10:21:52.980Z,16.10
2022-11-25T10:24:22.752Z,14.32
2022-11-25T10:26:59.659Z,14.00
2022-11-25T10:29:31.711Z,10.07
2022-11-25T10:32:22.826Z,15.88
2022-11-25T10:35:00.852Z,12.55
2022-11-25T10:37:33.244Z,15.15
2022-11-25T10:40:02.618Z,14.02
2022-11-25T10:42:37.253Z,14.77
2022-11-25T10:45:09.240Z,13.47
2022-11-25T10:47:54.125Z,13.10
2022-11-25T10:50:35.245Z,11.73
2022-11-25T10:53:15.314Z,12.95
2022-11-25T10:56:03.015Z,11.82
2022-11-25T10:58:38.838Z,16.20
2022-11-25T11:01:17.965Z,12.23
2022-11-25T11:03:52.615Z,18.35
2022-11-25T11:06:38.426Z,14.02
2022-11-25T11:11:50.820Z,14.68
2022-11-25T11:14:30.385Z,15.68
2022-11-25T11:17:00.100Z,12.45
2022-11-25T11:19:32.542Z,15.32
2022-11-25T11:22:27.749Z,13.07
2022-11-25T11:25:12.793Z,14.98
2022-11-25T11:27:42.277Z,15.65
2022-11-25T11:30:20.731Z,14.70
2022-11-25T11:33:07.172Z,15.43
2022-11-25T11:35:52.204Z,12.98
2022-11-25T11:38:33.713Z,14.20
2022-11-25T11:41:21.163Z,17.45
2022-11-25T11:44:27.284Z,16.08
2022-11-25T11:47:15.918Z,14.57
2022-11-25T11:50:23.340Z,20.95
2022-11-25T11:53:09.226Z,18.55
2022-11-25T11:56:34.712Z,16.80
2022-11-25T11:59:27.453Z,15.50
2022-11-25T12:02:18.647Z,19.80
2022-11-25T12:04:56.576Z,14.88
2022-11-25T12:07:35.978Z,14.48
2022-11-25T12:10:17.740Z,18.52
2022-11-25T12:12:55.126Z,20.85
2022-11-25T12:15:39.436Z,17.70
2022-11-25T12:18:25.909Z,20.00
2022-11-25T12:21:05.683Z,21.63
2022-11-25T12:23:59.691Z,17.20
2022-11-25T12:26:40.806Z,16.33
2022-11-25T12:29:15.696Z,20.48
2022-11-25T12:31:56.131Z,16.98
2022-11-25T12:34:35.947Z,18.52
2022-11-25T12:37:15.252Z,16.40
2022-11-25T12:39:52.510Z,18.48
2022-11-25T12:42:28.864Z,19.02
2022-11-25T12:45:04.725Z,15.55
2022-11-25T12:47:33.923Z,24.90
2022-11-25T12:50:04.081Z,22.73
2022-11-25T12:52:53.601Z,21.52
2022-11-25T12:55:24.255Z,19.30
2022-11-25T12:58:42.562Z,31.63
2022-11-25T13:01:45.006Z,20.55
2022-11-25T13:05:00.469Z,31.00
2022-11-25T13:07:45.486Z,26.42
2022-11-25T13:10:48.772Z,31.25
2022-11-25T13:13:51.228Z,31.50
2022-11-25T13:16:23.067Z,29.95
2022-11-25T13:18:53.300Z,23.77
2022-11-25T13:21:24.300Z,23.58
2022-11-25T13:23:57.587Z,31.48
2022-11-25T13:26:51.890Z,24.73
2022-11-25T13:30:04.151Z,25.38
2022-11-25T13:32:42.303Z,29.20
2022-11-25T13:35:54.011Z,28.05
2022-11-25T13:38:55.808Z,26.27
2022-11-25T13:41:48.757Z,22.70
2022-11-25T13:44:32.439Z,27.63
2022-11-25T13:47:25.523Z,21.67
2022-11-25T13:49:58.394Z,31.38
2022-11-25T13:52:42.724Z,26.30
2022-11-25T13:55:39.565Z,21.27
2022-11-25T13:58:22.041Z,19.10
2022-11-25T14:01:04.913Z,31.38
2022-11-25T14:04:01.769Z,15.80
2022-11-25T14:07:18.579Z,28.60
2022-11-25T14:10:21.277Z,24.77
2022-11-25T14:13:22.576Z,18.13
2022-11-25T14:16:22.024Z,21.80
2022-11-25T14:19:49.533Z,23.85
2022-11-25T14:22:34.105Z,25.55
2022-11-25T14:25:19.291Z,26.75
2022-11-25T14:27:52.311Z,24.90
2022-11-25T14:30:22.420Z,24.88
2022-11-25T14:33:03.977Z,16.77
2022-11-25T14:35:45.766Z,20.48
2022-11-25T14:38:21.790Z,20.60
2022-11-25T14:41:00.686Z,23.55
2022-11-25T14:43:36.455Z,21.55
2022-11-25T14:46:16.102Z,26.52
2022-11-25T14:48:55.472Z,27.27
2022-11-25T14:51:26.608Z,23.58
2022-11-25T14:53:57.666Z,30.13
2022-11-25T14:56:32.295Z,20.55
2022-11-25T14:59:10.213Z,29.03
2022-11-25T15:01:51.892Z,21.70
2022-11-25T15:04:26.906Z,20.48
2022-11-25T15:07:02.207Z,22.25
2022-11-25T15:09:34.431Z,28.42
2022-11-25T15:12:07.911Z,28.65
2022-11-25T15:14:43.353Z,29.02
2022-11-25T15:20:06.229Z,16.67
2022-11-25T15:22:37.121Z,22.85
2022-11-25T15:25:11.836Z,29.80
2022-11-25T15:27:47.565Z,21.10
2022-11-25T15:30:21.982Z,19.98
2022-11-25T15:32:58.009Z,26.03
2022-11-25T15:35:30.908Z,28.05
2022-11-25T15:38:00.699Z,26.60
2022-11-25T15:40:43.588Z,34.08
2022-11-25T15:43:25.727Z,26.67
2022-11-25T15:46:03.467Z,25.40
2022-11-25T15:49:03.695Z,20.85
2022-11-25T15:52:05.136Z,36.15
2022-11-25T15:54:42.859Z,24.42
2022-11-25T15:57:20.223Z,32.72
2022-11-25T16:00:04.972Z,34.33
2022-11-25T16:02:40.371Z,36.70
2022-11-25T16:05:33.946Z,38.45
2022-11-25T16:08:29.365Z,26.58
2022-11-25T16:11:11.190Z,28.93
2022-11-25T16:13:43.001Z,29.40
2022-11-25T16:16:29.819Z,29.58
2022-11-25T16:19:19.466Z,26.58
2022-11-25T16:21:57.310Z,34.15
2022-11-25T16:24:52.365Z,39.10
2022-11-25T16:27:26.647Z,32.17
2022-11-25T16:29:59.927Z,24.52
2022-11-25T16:32:30.774Z,23.90
2022-11-25T16:35:15.002Z,34.83
2022-11-25T16:37:48.773Z,27.10
2022-11-25T16:40:23.858Z,32.00
2022-11-25T16:42:53.370Z,37.25
2022-11-25T16:45:28.032Z,30.85
2022-11-25T16:47:59.222Z,34.20
2022-11-25T16:50:31.624Z,37.03
2022-11-25T16:53:13.883Z,33.70
2022-11-25T16:55:46.993Z,46.75
2022-11-25T16:58:21.519Z,37.67
2022-11-25T17:00:55.187Z,38.47
2022-11-25T17:03:26.713Z,34.05
2022-11-25T17:06:01.003Z,39.25
2022-11-25T17:08:30.063Z,33.92
2022-11-25T17:11:03.287Z,39.30
2022-11-25T17:13:33.885Z,33.75
2022-11-25T17:16:03.058Z,39.60
2022-11-25T17:18:36.222Z,38.80
2022-11-25T17:21:04.774Z,29.13
2022-11-25T17:23:33.828Z,33.88
2022-11-25T17:26:06.415Z,37.95
2022-11-25T17:28:36.688Z,33.53
2022-11-25T17:31:06.999Z,43.10
2022-11-25T17:33:37.413Z,48.45
2022-11-25T17:36:07.733Z,41.13
2022-11-25T17:38:40.434Z,44.08
2022-11-25T17:41:15.253Z,41.80
2022-11-25T17:43:47.901Z,48.42
2022-11-25T17:46:19.933Z,33.05
2022-11-25T17:48:49.369Z,35.45
2022-11-25T17:51:19.255Z,37.83
2022-11-25T17:53:50.251Z,37.83
2022-11-25T17:56:28.178Z,44.22
2022-11-25T17:59:02.012Z,34.15
2022-11-25T18:01:30.557Z,51.28
2022-11-25T18:06:45.952Z,65.80
2022-11-25T18:09:16.959Z,50.13
2022-11-25T18:11:52.708Z,46.70
2022-11-25T18:14:27.669Z,47.30
2022-11-25T18:16:58.703Z,49.80
2022-11-25T18:19:27.493Z,48.17
2022-11-25T18:22:01.950Z,42.45
2022-11-25T18:24:32.471Z,42.90
2022-11-25T18:27:03.429Z,50.28
2022-11-25T18:29:33.659Z,43.78
2022-11-25T18:32:12.580Z,45.15
2022-11-25T18:34:42.495Z,68.47
2022-11-25T18:37:15.882Z,37.72
2022-11-25T18:39:46.847Z,47.17
2022-11-25T18:42:26.307Z,56.05
2022-11-25T18:44:57.153Z,36.00
2022-11-25T18:47:26.393Z,42.22
2022-11-25T18:49:56.488Z,54.33
2022-11-25T18:52:29.618Z,49.53
2022-11-25T18:55:03.247Z,42.40
2022-11-25T18:57:38.859Z,39.83
2022-11-25T19:00:31.624Z,42.70
2022-11-25T19:03:09.386Z,62.42
2022-11-25T19:05:38.624Z,49.92
2022-11-25T19:08:11.056Z,49.30
2022-11-25T19:10:41.903Z,44.00
2022-11-25T19:13:24.514Z,37.80
2022-11-25T19:15:55.721Z,66.05
2022-11-25T19:18:29.975Z,46.92
2022-11-25T19:21:00.040Z,53.40
2022-11-25T19:23:36.287Z,56.50
2022-11-25T19:26:14.967Z,44.28
2022-11-25T19:29:02.729Z,60.40
2022-11-25T19:31:39.787Z,60.42
2022-11-25T19:34:17.437Z,57.38
2022-11-25T19:36:51.227Z,65.57
2022-11-25T19:39:27.957Z,41.47
2022-11-25T19:42:03.117Z,44.85
2022-11-25T19:44:50.541Z,55.83
2022-11-25T19:47:30.397Z,59.45
2022-11-25T19:50:18.017Z,53.33
2022-11-25T19:52:50.277Z,46.97
2022-11-25T19:55:24.530Z,58.97
2022-11-25T20:01:06.510Z,52.22
2022-11-25T20:03:42.733Z,60.88
2022-11-25T20:06:21.103Z,50.83
2022-11-25T20:08:52.669Z,60.40
2022-11-25T20:11:24.781Z,45.55
2022-11-25T20:14:05.436Z,54.03
2022-11-25T20:16:42.861Z,50.38
2022-11-25T20:19:20.275Z,43.85
2022-11-25T20:21:54.277Z,67.30
2022-11-25T20:24:28.265Z,48.35
2022-11-25T20:26:59.626Z,56.78
2022-11-25T20:29:30.756Z,63.88
2022-11-25T20:32:17.141Z,52.08
2022-11-25T20:34:53.289Z,44.13
2022-11-25T20:40:45.278Z,42.65
2022-11-25T20:43:33.798Z,54.25
2022-11-25T20:49:27.557Z,41.53
2022-11-25T20:52:02.094Z,47.17
2022-11-25T20:54:37.127Z,62.20
2022-11-25T20:57:16.228Z,44.88
2022-11-25T20:59:49.893Z,48.35
2022-11-25T21:02:23.465Z,66.57
2022-11-25T21:04:56.276Z,68.60
2022-11-25T21:07:25.481Z,69.03
2022-11-25T21:09:59.073Z,65.22
2022-11-25T21:12:29.274Z,60.35
2022-11-25T21:15:00.508Z,61.38
2022-11-25T21:17:32.980Z,52.70
2022-11-25T21:20:03.843Z,58.22
2022-11-25T21:22:36.869Z,54.45
2022-11-25T21:25:18.729Z,60.17
2022-11-25T21:27:50.720Z,49.88
2022-11-25T21:30:22.015Z,55.42
2022-11-25T21:32:56.592Z,49.88
2022-11-25T21:35:33.503Z,57.53
2022-11-25T21:38:10.068Z,58.97
2022-11-25T21:40:45.138Z,52.58
2022-11-25T21:43:21.769Z,43.58
2022-11-25T21:45:57.601Z,46.92
2022-11-25T21:48:30.138Z,40.53
2022-11-25T21:51:01.569Z,35.72
2022-11-25T21:53:36.020Z,50.30
2022-11-25T21:56:15.740Z,45.60
2022-11-25T21:58:47.312Z,42.53
2022-11-25T22:01:25.588Z,58.35
2022-11-25T22:03:54.761Z,51.47
2022-11-25T22:06:29.201Z,44.38
2022-11-25T22:09:01.056Z,58.72
2022-11-25T22:11:34.646Z,59.50
2022-11-25T22:14:09.209Z,56.53
2022-11-25T22:16:38.421Z,53.10
2022-11-25T22:19:07.525Z,45.40
2022-11-25T22:21:38.309Z,58.17
2022-11-25T22:24:16.056Z,53.25
2022-11-25T22:26:47.407Z,42.75
2022-11-25T22:29:20.471Z,43.83
2022-11-25T22:31:51.258Z,59.60
2022-11-25T22:34:22.406Z,52.58
2022-11-25T22:36:54.581Z,55.80
2022-11-25T22:39:27.299Z,40.55
2022-11-25T22:42:07.828Z,51.60
2022-11-25T22:44:42.967Z,52.83
2022-11-25T22:47:29.353Z,47.22
2022-11-25T22:49:58.819Z,52.08
2022-11-25T22:52:34.342Z,50.05
2022-11-25T22:55:17.879Z,55.22
2022-11-25T22:57:49.603Z,55.75
2022-11-25T23:00:27.297Z,53.83
2022-11-25T23:03:03.866Z,61.85
2022-11-25T23:05:34.722Z,61.35
2022-11-25T23:08:15.468Z,55.15
2022-11-25T23:10:48.780Z,55.88
2022-11-25T23:13:18.787Z,50.42
2022-11-25T23:15:53.391Z,59.22
2022-11-25T23:18:31.826Z,54.30
2022-11-25T23:21:04.708Z,57.13
2022-11-25T23:23:36.398Z,48.92
2022-11-25T23:26:05.231Z,40.13
2022-11-25T23:28:34.900Z,53.42
2022-11-25T23:31:06.110Z,51.03
2022-11-25T23:33:39.652Z,59.83
2022-11-25T23:36:12.195Z,41.80
2022-11-25T23:38:46.502Z,51.58
2022-11-25T23:41:19.073Z,66.85
2022-11-25T23:43:48.933Z,84.20
2022-11-25T23:46:20.713Z,105.63
2022-11-25T23:48:56.021Z,101.13
2022-11-25T23:54:00.102Z,111.80
2022-11-25T23:56:29.661Z,88.97
2022-11-25T23:59:07.222Z,120.55
